sensor_id;sensor_type;location;lat;lon;timestamp;temperature;humidity
3300;DHT22;1662;49.310;8.134;2022-11-20T00:02:25;4.40;99.90
3300;DHT22;1662;49.310;8.134;2022-11-20T00:04:50;4.30;99.90
3300;DHT22;1662;49.310;8.134;2022-11-20T00:07:16;4.30;99.90
3300;DHT22;1662;49.310;8.134;2022-11-20T00:09:42;4.20;99.90
3300;DHT22;1662;49.310;8.134;2022-11-20T00:12:07;4.30;99.90
3300;DHT22;1662;49.310;8.134;2022-11-20T00:17:12;4.30;99.90
3300;DHT22;1662;49.310;8.134;2022-11-20T00:19:38;4.40;99.90
3300;DHT22;1662;49.310;8.134;2022-11-20T00:22:03;4.40;99.90
3300;DHT22;1662;49.310;8.134;2022-11-20T00:24:31;4.40;99.90
3300;DHT22;1662;49.310;8.134;2022-11-20T00:26:57;4.40;99.90
3300;DHT22;1662;49.310;8.134;2022-11-20T00:29:22;4.40;99.90
3300;DHT22;1662;49.310;8.134;2022-11-20T00:31:48;4.40;99.90
3300;DHT22;1662;49.310;8.134;2022-11-20T00:36:50;4.50;99.90
3300;DHT22;1662;49.310;8.134;2022-11-20T00:39:16;4.50;99.90
3300;DHT22;1662;49.310;8.134;2022-11-20T00:41:41;4.50;99.90
3300;DHT22;1662;49.310;8.134;2022-11-20T00:44:07;4.50;99.90
3300;DHT22;1662;49.310;8.134;2022-11-20T00:46:32;4.50;99.90
3300;DHT22;1662;49.310;8.134;2022-11-20T00:48:58;4.40;99.90
3300;DHT22;1662;49.310;8.134;2022-11-20T00:51:26;4.50;99.90
3300;DHT22;1662;49.310;8.134;2022-11-20T00:56:18;4.50;99.90
3300;DHT22;1662;49.310;8.134;2022-11-20T00:58:46;4.50;99.90
3300;DHT22;1662;49.310;8.134;2022-11-20T01:01:14;4.50;99.90
3300;DHT22;1662;49.310;8.134;2022-11-20T01:03:43;4.50;99.90
3300;DHT22;1662;49.310;8.134;2022-11-20T01:06:35;4.50;99.90
3300;DHT22;1662;49.310;8.134;2022-11-20T01:09:10;4.50;99.90
3300;DHT22;1662;49.310;8.134;2022-11-20T01:14:31;4.60;99.90
3300;DHT22;1662;49.310;8.134;2022-11-20T01:16:56;4.60;99.90
3300;DHT22;1662;49.310;8.134;2022-11-20T01:19:23;4.60;99.90
3300;DHT22;1662;49.310;8.134;2022-11-20T01:21:51;4.60;99.90
3300;DHT22;1662;49.310;8.134;2022-11-20T01:24:21;4.60;99.90
3300;DHT22;1662;49.310;8.134;2022-11-20T01:26:48;4.60;99.90
3300;DHT22;1662;49.310;8.134;2022-11-20T01:29:16;4.60;99.90
3300;DHT22;1662;49.310;8.134;2022-11-20T01:34:14;4.60;99.90
3300;DHT22;1662;49.310;8.134;2022-11-20T01:36:42;4.60;99.90
3300;DHT22;1662;49.310;8.134;2022-11-20T01:39:21;4.60;99.90
3300;DHT22;1662;49.310;8.134;2022-11-20T01:41:49;4.60;99.90
3300;DHT22;1662;49.310;8.134;2022-11-20T01:44:49;4.60;99.90
3300;DHT22;1662;49.310;8.134;2022-11-20T01:47:21;4.50;99.90
3300;DHT22;1662;49.310;8.134;2022-11-20T01:52:34;4.50;99.90
3300;DHT22;1662;49.310;8.134;2022-11-20T01:55:06;4.50;99.90
3300;DHT22;1662;49.310;8.134;2022-11-20T01:57:34;4.60;99.90
3300;DHT22;1662;49.310;8.134;2022-11-20T02:00:08;4.50;99.90
3300;DHT22;1662;49.310;8.134;2022-11-20T02:02:35;4.50;99.90
3300;DHT22;1662;49.310;8.134;2022-11-20T02:05:14;4.50;99.90
3300;DHT22;1662;49.310;8.134;2022-11-20T02:07:43;4.50;99.90
3300;DHT22;1662;49.310;8.134;2022-11-20T02:11:38;4.50;99.90
3300;DHT22;1662;49.310;8.134;2022-11-20T02:14:04;4.60;99.90
3300;DHT22;1662;49.310;8.134;2022-11-20T02:16:32;4.60;99.90
3300;DHT22;1662;49.310;8.134;2022-11-20T02:19:00;4.50;99.90
3300;DHT22;1662;49.310;8.134;2022-11-20T02:24:29;4.60;99.90
3300;DHT22;1662;49.310;8.134;2022-11-20T02:30:09;4.60;99.90
3300;DHT22;1662;49.310;8.134;2022-11-20T02:32:37;4.60;99.90
3300;DHT22;1662;49.310;8.134;2022-11-20T02:35:39;4.60;99.90
3300;DHT22;1662;49.310;8.134;2022-11-20T02:38:01;4.60;99.90
3300;DHT22;1662;49.310;8.134;2022-11-20T02:40:27;4.60;99.90
3300;DHT22;1662;49.310;8.134;2022-11-20T02:42:54;4.50;99.90
3300;DHT22;1662;49.310;8.134;2022-11-20T02:45:20;4.50;99.90
3300;DHT22;1662;49.310;8.134;2022-11-20T02:49:18;4.50;99.90
3300;DHT22;1662;49.310;8.134;2022-11-20T02:51:44;4.50;99.90
3300;DHT22;1662;49.310;8.134;2022-11-20T02:54:09;4.60;99.90
3300;DHT22;1662;49.310;8.134;2022-11-20T02:56:39;4.60;99.90
3300;DHT22;1662;49.310;8.134;2022-11-20T02:59:05;4.60;99.90
3300;DHT22;1662;49.310;8.134;2022-11-20T03:01:31;4.50;99.90
3300;DHT22;1662;49.310;8.134;2022-11-20T03:03:56;4.60;99.90
3300;DHT22;1662;49.310;8.134;2022-11-20T03:09:35;4.60;99.90
3300;DHT22;1662;49.310;8.134;2022-11-20T03:12:00;4.60;99.90
3300;DHT22;1662;49.310;8.134;2022-11-20T03:14:26;4.60;99.90
3300;DHT22;1662;49.310;8.134;2022-11-20T03:16:51;4.60;99.90
3300;DHT22;1662;49.310;8.134;2022-11-20T03:19:17;4.60;99.90
3300;DHT22;1662;49.310;8.134;2022-11-20T03:21:43;4.70;99.90
3300;DHT22;1662;49.310;8.134;2022-11-20T03:24:09;4.60;99.90
3300;DHT22;1662;49.310;8.134;2022-11-20T03:28:54;4.70;99.90
3300;DHT22;1662;49.310;8.134;2022-11-20T03:31:24;4.70;99.90
3300;DHT22;1662;49.310;8.134;2022-11-20T03:33:50;4.70;99.90
3300;DHT22;1662;49.310;8.134;2022-11-20T03:36:17;4.70;99.90
3300;DHT22;1662;49.310;8.134;2022-11-20T03:38:46;4.60;99.90
3300;DHT22;1662;49.310;8.134;2022-11-20T03:41:14;4.70;99.90
3300;DHT22;1662;49.310;8.134;2022-11-20T03:43:40;4.60;99.90
3300;DHT22;1662;49.310;8.134;2022-11-20T03:47:39;4.70;99.90
3300;DHT22;1662;49.310;8.134;2022-11-20T03:50:05;4.70;99.90
3300;DHT22;1662;49.310;8.134;2022-11-20T03:52:31;4.70;99.90
3300;DHT22;1662;49.310;8.134;2022-11-20T03:54:56;4.70;99.90
3300;DHT22;1662;49.310;8.134;2022-11-20T03:57:22;4.70;99.90
3300;DHT22;1662;49.310;8.134;2022-11-20T03:59:47;4.70;99.90
3300;DHT22;1662;49.310;8.134;2022-11-20T04:02:13;4.70;99.90
3300;DHT22;1662;49.310;8.134;2022-11-20T04:07:06;4.70;99.90
3300;DHT22;1662;49.310;8.134;2022-11-20T04:09:32;4.70;99.90
3300;DHT22;1662;49.310;8.134;2022-11-20T04:11:57;4.70;99.90
3300;DHT22;1662;49.310;8.134;2022-11-20T04:14:23;4.70;99.90
3300;DHT22;1662;49.310;8.134;2022-11-20T04:16:49;4.70;99.90
3300;DHT22;1662;49.310;8.134;2022-11-20T04:19:15;4.70;99.90
3300;DHT22;1662;49.310;8.134;2022-11-20T04:21:43;4.80;99.90
3300;DHT22;1662;49.310;8.134;2022-11-20T04:27:02;4.80;99.90
3300;DHT22;1662;49.310;8.134;2022-11-20T04:29:28;4.80;99.90
3300;DHT22;1662;49.310;8.134;2022-11-20T04:31:53;4.80;99.90
3300;DHT22;1662;49.310;8.134;2022-11-20T04:34:19;4.80;99.90
3300;DHT22;1662;49.310;8.134;2022-11-20T04:36:47;4.80;99.90
3300;DHT22;1662;49.310;8.134;2022-11-20T04:39:14;4.70;99.90
3300;DHT22;1662;49.310;8.134;2022-11-20T04:41:41;4.70;99.90
3300;DHT22;1662;49.310;8.134;2022-11-20T04:45:50;4.80;99.90
3300;DHT22;1662;49.310;8.134;2022-11-20T04:48:16;4.70;99.90
3300;DHT22;1662;49.310;8.134;2022-11-20T04:50:42;4.70;99.90
3300;DHT22;1662;49.310;8.134;2022-11-20T04:53:08;4.80;99.90
3300;DHT22;1662;49.310;8.134;2022-11-20T04:55:33;4.80;99.90
3300;DHT22;1662;49.310;8.134;2022-11-20T04:57:59;4.70;99.90
3300;DHT22;1662;49.310;8.134;2022-11-20T05:00:24;4.70;99.90
3300;DHT22;1662;49.310;8.134;2022-11-20T05:02:54;4.70;99.90
3300;DHT22;1662;49.310;8.134;2022-11-20T05:05:20;4.70;99.90
3300;DHT22;1662;49.310;8.134;2022-11-20T05:07:45;4.80;99.90
3300;DHT22;1662;49.310;8.134;2022-11-20T05:10:13;4.70;99.90
3300;DHT22;1662;49.310;8.134;2022-11-20T05:12:42;4.80;99.90
3300;DHT22;1662;49.310;8.134;2022-11-20T05:15:08;4.80;99.90
3300;DHT22;1662;49.310;8.134;2022-11-20T05:17:33;4.80;99.90
3300;DHT22;1662;49.310;8.134;2022-11-20T05:19:59;4.80;99.90
3300;DHT22;1662;49.310;8.134;2022-11-20T05:22:27;4.80;99.90
3300;DHT22;1662;49.310;8.134;2022-11-20T05:24:52;4.80;99.90
3300;DHT22;1662;49.310;8.134;2022-11-20T05:27:18;4.80;99.90
3300;DHT22;1662;49.310;8.134;2022-11-20T05:29:44;4.90;99.90
3300;DHT22;1662;49.310;8.134;2022-11-20T05:32:11;4.90;99.90
3300;DHT22;1662;49.310;8.134;2022-11-20T05:34:37;4.90;99.90
3300;DHT22;1662;49.310;8.134;2022-11-20T05:37:03;4.90;99.90
3300;DHT22;1662;49.310;8.134;2022-11-20T05:39:28;4.90;99.90
3300;DHT22;1662;49.310;8.134;2022-11-20T05:41:54;4.90;99.90
3300;DHT22;1662;49.310;8.134;2022-11-20T05:44:38;5.00;99.90
3300;DHT22;1662;49.310;8.134;2022-11-20T05:47:04;5.00;99.90
3300;DHT22;1662;49.310;8.134;2022-11-20T05:49:30;4.90;99.90
3300;DHT22;1662;49.310;8.134;2022-11-20T05:51:56;5.00;99.90
3300;DHT22;1662;49.310;8.134;2022-11-20T05:54:21;4.90;99.90
3300;DHT22;1662;49.310;8.134;2022-11-20T05:56:47;5.00;99.90
3300;DHT22;1662;49.310;8.134;2022-11-20T05:59:12;4.90;99.90
3300;DHT22;1662;49.310;8.134;2022-11-20T06:01:38;4.90;99.90
3300;DHT22;1662;49.310;8.134;2022-11-20T06:04:04;4.90;99.90
3300;DHT22;1662;49.310;8.134;2022-11-20T06:06:31;4.90;99.90
3300;DHT22;1662;49.310;8.134;2022-11-20T06:08:59;4.90;99.90
3300;DHT22;1662;49.310;8.134;2022-11-20T06:11:25;4.90;99.90
3300;DHT22;1662;49.310;8.134;2022-11-20T06:13:51;4.90;99.90
3300;DHT22;1662;49.310;8.134;2022-11-20T06:16:18;4.80;99.90
3300;DHT22;1662;49.310;8.134;2022-11-20T06:18:44;4.80;99.90
3300;DHT22;1662;49.310;8.134;2022-11-20T06:21:16;4.90;99.90
3300;DHT22;1662;49.310;8.134;2022-11-20T06:23:43;4.90;99.90
3300;DHT22;1662;49.310;8.134;2022-11-20T06:26:21;4.90;99.90
3300;DHT22;1662;49.310;8.134;2022-11-20T06:28:47;4.90;99.90
3300;DHT22;1662;49.310;8.134;2022-11-20T06:31:19;4.90;99.90
3300;DHT22;1662;49.310;8.134;2022-11-20T06:33:48;5.00;99.90
3300;DHT22;1662;49.310;8.134;2022-11-20T06:36:15;5.00;99.90
3300;DHT22;1662;49.310;8.134;2022-11-20T06:38:43;5.00;99.90
3300;DHT22;1662;49.310;8.134;2022-11-20T06:41:14;5.10;99.90
3300;DHT22;1662;49.310;8.134;2022-11-20T06:43:40;5.00;99.90
3300;DHT22;1662;49.310;8.134;2022-11-20T06:46:05;5.10;99.90
3300;DHT22;1662;49.310;8.134;2022-11-20T06:48:31;5.10;99.90
3300;DHT22;1662;49.310;8.134;2022-11-20T06:50:57;5.70;99.90
3300;DHT22;1662;49.310;8.134;2022-11-20T06:53:23;5.70;99.90
3300;DHT22;1662;49.310;8.134;2022-11-20T06:55:49;5.60;99.90
3300;DHT22;1662;49.310;8.134;2022-11-20T06:58:16;5.60;99.90
3300;DHT22;1662;49.310;8.134;2022-11-20T07:03:31;5.50;99.90
3300;DHT22;1662;49.310;8.134;2022-11-20T07:06:00;5.50;99.90
3300;DHT22;1662;49.310;8.134;2022-11-20T07:08:26;5.60;99.90
3300;DHT22;1662;49.310;8.134;2022-11-20T07:10:51;5.70;99.90
3300;DHT22;1662;49.310;8.134;2022-11-20T07:13:19;5.70;99.90
3300;DHT22;1662;49.310;8.134;2022-11-20T07:15:45;5.80;99.90
3300;DHT22;1662;49.310;8.134;2022-11-20T07:18:10;5.80;99.90
3300;DHT22;1662;49.310;8.134;2022-11-20T07:22:55;5.90;99.90
3300;DHT22;1662;49.310;8.134;2022-11-20T07:25:22;6.00;99.90
3300;DHT22;1662;49.310;8.134;2022-11-20T07:27:48;6.10;99.90
3300;DHT22;1662;49.310;8.134;2022-11-20T07:30:15;6.20;99.90
3300;DHT22;1662;49.310;8.134;2022-11-20T07:32:40;6.20;99.90
3300;DHT22;1662;49.310;8.134;2022-11-20T07:35:06;6.30;99.90
3300;DHT22;1662;49.310;8.134;2022-11-20T07:37:35;6.40;99.90
3300;DHT22;1662;49.310;8.134;2022-11-20T07:42:36;6.40;99.90
3300;DHT22;1662;49.310;8.134;2022-11-20T07:45:01;6.40;99.90
3300;DHT22;1662;49.310;8.134;2022-11-20T07:47:27;6.50;99.90
3300;DHT22;1662;49.310;8.134;2022-11-20T07:49:52;6.50;99.90
3300;DHT22;1662;49.310;8.134;2022-11-20T07:52:18;6.50;99.90
3300;DHT22;1662;49.310;8.134;2022-11-20T07:54:46;6.50;99.90
3300;DHT22;1662;49.310;8.134;2022-11-20T07:57:11;6.60;99.90
3300;DHT22;1662;49.310;8.134;2022-11-20T08:01:34;6.60;99.90
3300;DHT22;1662;49.310;8.134;2022-11-20T08:04:00;6.60;99.90
3300;DHT22;1662;49.310;8.134;2022-11-20T08:06:26;6.60;99.90
3300;DHT22;1662;49.310;8.134;2022-11-20T08:08:51;6.60;99.90
3300;DHT22;1662;49.310;8.134;2022-11-20T08:11:17;6.70;99.90
3300;DHT22;1662;49.310;8.134;2022-11-20T08:14:01;6.70;99.90
3300;DHT22;1662;49.310;8.134;2022-11-20T08:16:44;6.80;99.90
3300;DHT22;1662;49.310;8.134;2022-11-20T08:21:03;6.80;99.90
3300;DHT22;1662;49.310;8.134;2022-11-20T08:23:29;7.00;99.90
3300;DHT22;1662;49.310;8.134;2022-11-20T08:25:54;7.00;99.90
3300;DHT22;1662;49.310;8.134;2022-11-20T08:28:20;7.10;99.90
3300;DHT22;1662;49.310;8.134;2022-11-20T08:30:45;7.00;99.90
3300;DHT22;1662;49.310;8.134;2022-11-20T08:33:11;7.10;99.90
3300;DHT22;1662;49.310;8.134;2022-11-20T08:35:39;7.20;99.90
3300;DHT22;1662;49.310;8.134;2022-11-20T08:40:15;7.20;99.90
3300;DHT22;1662;49.310;8.134;2022-11-20T08:42:47;7.30;99.90
3300;DHT22;1662;49.310;8.134;2022-11-20T08:45:13;7.30;99.90
3300;DHT22;1662;49.310;8.134;2022-11-20T08:47:42;7.30;99.90
3300;DHT22;1662;49.310;8.134;2022-11-20T08:50:09;7.40;99.90
3300;DHT22;1662;49.310;8.134;2022-11-20T08:52:35;7.40;99.90
3300;DHT22;1662;49.310;8.134;2022-11-20T08:55:04;7.50;99.90
3300;DHT22;1662;49.310;8.134;2022-11-20T08:59:12;7.50;99.90
3300;DHT22;1662;49.310;8.134;2022-11-20T09:01:38;7.60;99.90
3300;DHT22;1662;49.310;8.134;2022-11-20T09:04:04;7.70;99.90
3300;DHT22;1662;49.310;8.134;2022-11-20T09:06:30;7.80;99.90
3300;DHT22;1662;49.310;8.134;2022-11-20T09:08:58;7.80;99.90
3300;DHT22;1662;49.310;8.134;2022-11-20T09:11:23;7.80;99.90
3300;DHT22;1662;49.310;8.134;2022-11-20T09:13:49;7.80;99.90
3300;DHT22;1662;49.310;8.134;2022-11-20T09:18:23;7.80;99.90
3300;DHT22;1662;49.310;8.134;2022-11-20T09:20:49;8.00;99.90
3300;DHT22;1662;49.310;8.134;2022-11-20T09:23:15;8.00;99.90
3300;DHT22;1662;49.310;8.134;2022-11-20T09:25:43;8.10;99.90
3300;DHT22;1662;49.310;8.134;2022-11-20T09:28:09;8.10;99.90
3300;DHT22;1662;49.310;8.134;2022-11-20T09:30:35;8.10;99.90
3300;DHT22;1662;49.310;8.134;2022-11-20T09:33:00;8.20;99.90
3300;DHT22;1662;49.310;8.134;2022-11-20T09:36:49;8.20;99.90
3300;DHT22;1662;49.310;8.134;2022-11-20T09:39:14;8.20;99.90
3300;DHT22;1662;49.310;8.134;2022-11-20T09:47:23;8.20;99.90
3300;DHT22;1662;49.310;8.134;2022-11-20T09:50:14;8.20;99.90
3300;DHT22;1662;49.310;8.134;2022-11-20T09:52:47;8.20;99.90
3300;DHT22;1662;49.310;8.134;2022-11-20T09:55:18;8.20;99.90
3300;DHT22;1662;49.310;8.134;2022-11-20T09:58:48;8.20;99.90
3300;DHT22;1662;49.310;8.134;2022-11-20T10:01:18;8.40;99.90
3300;DHT22;1662;49.310;8.134;2022-11-20T10:03:51;8.30;99.90
3300;DHT22;1662;49.310;8.134;2022-11-20T10:06:24;8.40;99.90
3300;DHT22;1662;49.310;8.134;2022-11-20T10:24:56;8.50;99.90
3300;DHT22;1662;49.310;8.134;2022-11-20T10:30:18;8.60;99.90
3300;DHT22;1662;49.310;8.134;2022-11-20T10:35:27;8.60;99.90
3300;DHT22;1662;49.310;8.134;2022-11-20T10:38:03;8.70;99.90
3300;DHT22;1662;49.310;8.134;2022-11-20T10:40:43;8.90;99.90
3300;DHT22;1662;49.310;8.134;2022-11-20T10:43:16;8.90;99.90
3300;DHT22;1662;49.310;8.134;2022-11-20T10:45:45;9.00;99.90
3300;DHT22;1662;49.310;8.134;2022-11-20T10:48:31;9.00;99.90
3300;DHT22;1662;49.310;8.134;2022-11-20T10:54:54;8.90;99.90
3300;DHT22;1662;49.310;8.134;2022-11-20T11:00:11;9.10;99.90
3300;DHT22;1662;49.310;8.134;2022-11-20T11:02:53;9.40;99.90
3300;DHT22;1662;49.310;8.134;2022-11-20T11:05:42;9.50;99.90
3300;DHT22;1662;49.310;8.134;2022-11-20T11:08:14;9.60;99.90
3300;DHT22;1662;49.310;8.134;2022-11-20T11:11:01;9.80;99.90
3300;DHT22;1662;49.310;8.134;2022-11-20T11:14:27;10.00;99.90
3300;DHT22;1662;49.310;8.134;2022-11-20T11:16:55;10.10;99.90
3300;DHT22;1662;49.310;8.134;2022-11-20T11:19:21;10.10;99.90
3300;DHT22;1662;49.310;8.134;2022-11-20T11:21:49;10.10;99.90
3300;DHT22;1662;49.310;8.134;2022-11-20T11:24:27;10.20;99.90
3300;DHT22;1662;49.310;8.134;2022-11-20T11:26:57;10.30;99.90
3300;DHT22;1662;49.310;8.134;2022-11-20T11:29:23;10.30;99.90
3300;DHT22;1662;49.310;8.134;2022-11-20T11:35:54;10.40;99.90
3300;DHT22;1662;49.310;8.134;2022-11-20T11:38:42;10.50;99.90
3300;DHT22;1662;49.310;8.134;2022-11-20T11:41:14;10.60;99.90
3300;DHT22;1662;49.310;8.134;2022-11-20T11:43:51;10.60;99.90
3300;DHT22;1662;49.310;8.134;2022-11-20T11:46:36;10.70;99.90
3300;DHT22;1662;49.310;8.134;2022-11-20T11:49:21;10.90;99.90
3300;DHT22;1662;49.310;8.134;2022-11-20T11:53:09;11.00;99.90
3300;DHT22;1662;49.310;8.134;2022-11-20T11:58:51;11.10;99.90
3300;DHT22;1662;49.310;8.134;2022-11-20T12:03:38;10.60;99.90
3300;DHT22;1662;49.310;8.134;2022-11-20T12:06:15;10.70;99.90
3300;DHT22;1662;49.310;8.134;2022-11-20T12:16:42;10.70;99.90
3300;DHT22;1662;49.310;8.134;2022-11-20T12:19:11;10.70;99.90
3300;DHT22;1662;49.310;8.134;2022-11-20T12:30:18;10.50;99.90
3300;DHT22;1662;49.310;8.134;2022-11-20T12:35:28;10.50;99.90
3300;DHT22;1662;49.310;8.134;2022-11-20T12:56:49;10.40;99.90
3300;DHT22;1662;49.310;8.134;2022-11-20T13:05:15;10.30;99.90
3300;DHT22;1662;49.310;8.134;2022-11-20T13:07:44;10.20;99.90
3300;DHT22;1662;49.310;8.134;2022-11-20T13:12:59;10.20;99.90
3300;DHT22;1662;49.310;8.134;2022-11-20T13:18:14;10.30;99.90
3300;DHT22;1662;49.310;8.134;2022-11-20T13:23:27;10.20;99.90
3300;DHT22;1662;49.310;8.134;2022-11-20T13:26:14;10.20;99.90
3300;DHT22;1662;49.310;8.134;2022-11-20T13:28:42;10.20;99.90
3300;DHT22;1662;49.310;8.134;2022-11-20T13:31:30;10.20;99.90
3300;DHT22;1662;49.310;8.134;2022-11-20T13:33:59;10.30;99.90
3300;DHT22;1662;49.310;8.134;2022-11-20T13:36:28;10.10;99.90
3300;DHT22;1662;49.310;8.134;2022-11-20T13:41:01;10.30;99.90
3300;DHT22;1662;49.310;8.134;2022-11-20T13:43:49;10.10;99.90
3300;DHT22;1662;49.310;8.134;2022-11-20T13:46:17;10.10;99.90
3300;DHT22;1662;49.310;8.134;2022-11-20T13:48:49;10.10;99.90
3300;DHT22;1662;49.310;8.134;2022-11-20T13:51:44;10.10;99.90
3300;DHT22;1662;49.310;8.134;2022-11-20T13:54:39;10.00;99.90
3300;DHT22;1662;49.310;8.134;2022-11-20T13:58:40;10.00;99.90
3300;DHT22;1662;49.310;8.134;2022-11-20T14:01:18;10.10;99.90
3300;DHT22;1662;49.310;8.134;2022-11-20T14:03:46;10.10;99.90
3300;DHT22;1662;49.310;8.134;2022-11-20T14:08:49;10.00;99.90
3300;DHT22;1662;49.310;8.134;2022-11-20T14:11:20;10.00;99.90
3300;DHT22;1662;49.310;8.134;2022-11-20T14:15:58;10.00;99.90
3300;DHT22;1662;49.310;8.134;2022-11-20T14:18:26;10.00;99.90
3300;DHT22;1662;49.310;8.134;2022-11-20T14:20:52;10.00;99.90
3300;DHT22;1662;49.310;8.134;2022-11-20T14:23:28;9.90;99.90
3300;DHT22;1662;49.310;8.134;2022-11-20T14:25:54;10.00;99.90
3300;DHT22;1662;49.310;8.134;2022-11-20T14:28:25;9.90;99.90
3300;DHT22;1662;49.310;8.134;2022-11-20T14:33:26;9.80;99.90
3300;DHT22;1662;49.310;8.134;2022-11-20T14:35:55;9.70;99.90
3300;DHT22;1662;49.310;8.134;2022-11-20T14:38:25;9.60;99.90
3300;DHT22;1662;49.310;8.134;2022-11-20T14:40:51;9.60;99.90
3300;DHT22;1662;49.310;8.134;2022-11-20T14:43:25;9.60;99.90
3300;DHT22;1662;49.310;8.134;2022-11-20T14:46:07;9.60;99.90
3300;DHT22;1662;49.310;8.134;2022-11-20T14:51:40;9.50;99.90
3300;DHT22;1662;49.310;8.134;2022-11-20T14:54:17;9.60;99.90
3300;DHT22;1662;49.310;8.134;2022-11-20T14:56:57;9.50;99.90
3300;DHT22;1662;49.310;8.134;2022-11-20T14:59:25;9.60;99.90
3300;DHT22;1662;49.310;8.134;2022-11-20T15:02:06;9.50;99.90
3300;DHT22;1662;49.310;8.134;2022-11-20T15:04:43;9.40;99.90
3300;DHT22;1662;49.310;8.134;2022-11-20T15:09:21;9.30;99.90
3300;DHT22;1662;49.310;8.134;2022-11-20T15:12:01;9.30;99.90
3300;DHT22;1662;49.310;8.134;2022-11-20T15:14:28;9.30;99.90
3300;DHT22;1662;49.310;8.134;2022-11-20T15:17:00;9.30;99.90
3300;DHT22;1662;49.310;8.134;2022-11-20T15:19:26;9.20;99.90
3300;DHT22;1662;49.310;8.134;2022-11-20T15:21:53;9.30;99.90
3300;DHT22;1662;49.310;8.134;2022-11-20T15:26:34;9.10;99.90
3300;DHT22;1662;49.310;8.134;2022-11-20T15:29:00;9.30;99.90
3300;DHT22;1662;49.310;8.134;2022-11-20T15:31:26;9.20;99.90
3300;DHT22;1662;49.310;8.134;2022-11-20T15:33:51;9.30;99.90
3300;DHT22;1662;49.310;8.134;2022-11-20T15:36:17;9.20;99.90
3300;DHT22;1662;49.310;8.134;2022-11-20T15:38:42;9.20;99.90
3300;DHT22;1662;49.310;8.134;2022-11-20T15:41:08;9.20;99.90
3300;DHT22;1662;49.310;8.134;2022-11-20T15:46:16;9.20;99.90
3300;DHT22;1662;49.310;8.134;2022-11-20T15:48:50;9.10;99.90
3300;DHT22;1662;49.310;8.134;2022-11-20T15:51:34;9.50;99.90
3300;DHT22;1662;49.310;8.134;2022-11-20T15:54:02;9.50;99.90
3300;DHT22;1662;49.310;8.134;2022-11-20T15:56:30;9.40;99.90
3300;DHT22;1662;49.310;8.134;2022-11-20T15:58:58;9.30;99.90
3300;DHT22;1662;49.310;8.134;2022-11-20T16:02:56;9.10;99.90
3300;DHT22;1662;49.310;8.134;2022-11-20T16:05:22;9.10;99.90
3300;DHT22;1662;49.310;8.134;2022-11-20T16:07:49;9.00;99.90
3300;DHT22;1662;49.310;8.134;2022-11-20T16:10:16;9.20;99.90
3300;DHT22;1662;49.310;8.134;2022-11-20T16:12:41;9.00;99.90
3300;DHT22;1662;49.310;8.134;2022-11-20T16:15:26;8.80;99.90
3300;DHT22;1662;49.310;8.134;2022-11-20T16:20:22;9.10;99.90
3300;DHT22;1662;49.310;8.134;2022-11-20T16:22:50;9.00;99.90
3300;DHT22;1662;49.310;8.134;2022-11-20T16:25:16;8.90;99.90
3300;DHT22;1662;49.310;8.134;2022-11-20T16:27:41;8.80;99.90
3300;DHT22;1662;49.310;8.134;2022-11-20T16:30:10;8.80;99.90
3300;DHT22;1662;49.310;8.134;2022-11-20T16:32:35;8.70;99.90
3300;DHT22;1662;49.310;8.134;2022-11-20T16:35:01;8.80;99.90
3300;DHT22;1662;49.310;8.134;2022-11-20T16:38:03;8.50;99.90
3300;DHT22;1662;49.310;8.134;2022-11-20T16:40:32;8.50;99.90
3300;DHT22;1662;49.310;8.134;2022-11-20T16:43:12;8.50;99.90
3300;DHT22;1662;49.310;8.134;2022-11-20T16:45:43;8.30;99.90
3300;DHT22;1662;49.310;8.134;2022-11-20T16:48:14;8.40;99.90
3300;DHT22;1662;49.310;8.134;2022-11-20T16:50:51;8.40;99.90
3300;DHT22;1662;49.310;8.134;2022-11-20T16:55:15;8.20;99.90
3300;DHT22;1662;49.310;8.134;2022-11-20T16:57:41;8.20;99.90
3300;DHT22;1662;49.310;8.134;2022-11-20T17:00:07;8.30;99.90
3300;DHT22;1662;49.310;8.134;2022-11-20T17:02:36;8.20;99.90
3300;DHT22;1662;49.310;8.134;2022-11-20T17:05:02;8.20;99.90
3300;DHT22;1662;49.310;8.134;2022-11-20T17:07:28;8.30;99.90
3300;DHT22;1662;49.310;8.134;2022-11-20T17:09:53;8.20;99.90
3300;DHT22;1662;49.310;8.134;2022-11-20T17:13:41;8.30;99.90
3300;DHT22;1662;49.310;8.134;2022-11-20T17:16:11;8.20;99.90
3300;DHT22;1662;49.310;8.134;2022-11-20T17:18:37;8.10;99.90
3300;DHT22;1662;49.310;8.134;2022-11-20T17:21:05;8.10;99.90
3300;DHT22;1662;49.310;8.134;2022-11-20T17:23:42;8.20;99.90
3300;DHT22;1662;49.310;8.134;2022-11-20T17:26:10;8.20;99.90
3300;DHT22;1662;49.310;8.134;2022-11-20T17:28:38;8.00;99.90
3300;DHT22;1662;49.310;8.134;2022-11-20T17:33:07;8.00;99.90
3300;DHT22;1662;49.310;8.134;2022-11-20T17:35:35;8.10;99.90
3300;DHT22;1662;49.310;8.134;2022-11-20T17:38:01;8.10;99.90
3300;DHT22;1662;49.310;8.134;2022-11-20T17:40:26;8.00;99.90
3300;DHT22;1662;49.310;8.134;2022-11-20T17:42:54;8.00;99.90
3300;DHT22;1662;49.310;8.134;2022-11-20T17:45:20;8.00;99.90
3300;DHT22;1662;49.310;8.134;2022-11-20T17:50:36;8.00;99.90
3300;DHT22;1662;49.310;8.134;2022-11-20T17:53:02;8.10;99.90
3300;DHT22;1662;49.310;8.134;2022-11-20T17:55:28;8.00;99.90
3300;DHT22;1662;49.310;8.134;2022-11-20T17:58:13;8.20;99.90
3300;DHT22;1662;49.310;8.134;2022-11-20T18:00:39;8.20;99.90
3300;DHT22;1662;49.310;8.134;2022-11-20T18:03:05;8.10;99.90
3300;DHT22;1662;49.310;8.134;2022-11-20T18:08:06;8.10;99.90
3300;DHT22;1662;49.310;8.134;2022-11-20T18:10:32;8.20;99.90
3300;DHT22;1662;49.310;8.134;2022-11-20T18:12:59;8.10;99.90
3300;DHT22;1662;49.310;8.134;2022-11-20T18:15:25;8.10;99.90
3300;DHT22;1662;49.310;8.134;2022-11-20T18:17:50;8.10;99.90
3300;DHT22;1662;49.310;8.134;2022-11-20T18:20:16;8.10;99.90
3300;DHT22;1662;49.310;8.134;2022-11-20T18:22:43;8.00;99.90
3300;DHT22;1662;49.310;8.134;2022-11-20T18:25:11;8.00;99.90
3300;DHT22;1662;49.310;8.134;2022-11-20T18:28:47;8.00;99.90
3300;DHT22;1662;49.310;8.134;2022-11-20T18:31:12;7.90;99.90
3300;DHT22;1662;49.310;8.134;2022-11-20T18:33:38;7.70;99.90
3300;DHT22;1662;49.310;8.134;2022-11-20T18:36:12;7.90;99.90
3300;DHT22;1662;49.310;8.134;2022-11-20T18:38:47;7.80;99.90
3300;DHT22;1662;49.310;8.134;2022-11-20T18:41:15;7.80;99.90
3300;DHT22;1662;49.310;8.134;2022-11-20T18:45:40;7.70;99.90
3300;DHT22;1662;49.310;8.134;2022-11-20T18:48:08;7.60;99.90
3300;DHT22;1662;49.310;8.134;2022-11-20T18:50:34;7.60;99.90
3300;DHT22;1662;49.310;8.134;2022-11-20T18:53:01;7.40;99.90
3300;DHT22;1662;49.310;8.134;2022-11-20T18:55:27;7.40;99.90
3300;DHT22;1662;49.310;8.134;2022-11-20T18:57:53;7.30;99.90
3300;DHT22;1662;49.310;8.134;2022-11-20T19:00:20;7.30;99.90
3300;DHT22;1662;49.310;8.134;2022-11-20T19:03:37;7.30;99.90
3300;DHT22;1662;49.310;8.134;2022-11-20T19:06:02;7.20;99.90
3300;DHT22;1662;49.310;8.134;2022-11-20T19:08:33;7.20;99.90
3300;DHT22;1662;49.310;8.134;2022-11-20T19:11:10;7.20;99.90
3300;DHT22;1662;49.310;8.134;2022-11-20T19:13:37;7.00;99.90
3300;DHT22;1662;49.310;8.134;2022-11-20T19:16:16;7.10;99.90
3300;DHT22;1662;49.310;8.134;2022-11-20T19:21:22;7.00;99.90
3300;DHT22;1662;49.310;8.134;2022-11-20T19:23:50;7.00;99.90
3300;DHT22;1662;49.310;8.134;2022-11-20T19:26:17;7.10;99.90
3300;DHT22;1662;49.310;8.134;2022-11-20T19:28:43;7.10;99.90
3300;DHT22;1662;49.310;8.134;2022-11-20T19:31:11;7.00;99.90
3300;DHT22;1662;49.310;8.134;2022-11-20T19:33:39;7.10;99.90
3300;DHT22;1662;49.310;8.134;2022-11-20T19:39:04;7.20;99.90
3300;DHT22;1662;49.310;8.134;2022-11-20T19:41:32;7.10;99.90
3300;DHT22;1662;49.310;8.134;2022-11-20T19:44:00;7.20;99.90
3300;DHT22;1662;49.310;8.134;2022-11-20T19:46:26;7.20;99.90
3300;DHT22;1662;49.310;8.134;2022-11-20T19:48:53;7.20;99.90
3300;DHT22;1662;49.310;8.134;2022-11-20T19:51:22;7.20;99.90